Time;durP1;ratioP1;P1;durP2;ratioP2;P2;SDS_P1;SDS_P2;PMS_P1;PMS_P2;Temp;Humidity;BMP_temperature;BMP_pressure;BME280_temperature;BME280_humidity;BME280_pressure;Samples;Min_cycle;Max_cycle;Signal;HPM_P1;HPM_P2
2023/03/18 00:02:07;;;;;;;13.60;7.18;;;;;;;13.24;70.01;100683.50;5076790;28;20035;-61
2023/03/18 00:04:33;;;;;;;12.52;6.50;;;;;;;13.27;69.71;100671.09;5076454;28;20052;-61
2023/03/18 00:06:58;;;;;;;18.27;7.13;;;;;;;13.27;70.14;100667.53;5076702;28;20119;-61
2023/03/18 00:09:24;;;;;;;14.38;7.15;;;;;;;13.25;70.21;100675.53;5076664;28;20024;-61
2023/03/18 00:11:50;;;;;;;12.25;6.72;;;;;;;13.22;70.59;100678.16;5076300;28;20032;-61
2023/03/18 00:14:15;;;;;;;13.10;7.03;;;;;;;13.20;70.52;100681.69;5076470;28;20024;-61
2023/03/18 00:16:40;;;;;;;15.32;7.15;;;;;;;13.16;70.76;100680.81;5076203;28;20050;-61
2023/03/18 00:19:06;;;;;;;12.23;6.97;;;;;;;13.11;71.32;100679.97;5076473;28;20107;-61
2023/03/18 00:21:32;;;;;;;11.90;7.30;;;;;;;13.15;70.91;100680.84;5076195;28;20046;-61
2023/03/18 00:23:59;;;;;;;13.00;7.43;;;;;;;13.15;71.15;100688.78;5057989;28;20025;-61
2023/03/18 00:26:27;;;;;;;14.13;7.55;;;;;;;13.14;71.08;100685.22;5076092;28;20035;-61
2023/03/18 00:28:57;;;;;;;17.75;7.65;;;;;;;13.16;71.02;100685.25;5076386;28;20086;-61
2023/03/18 00:31:24;;;;;;;15.98;7.70;;;;;;;13.13;71.35;100686.13;5075878;28;20482;-61
2023/03/18 00:33:51;;;;;;;13.70;7.40;;;;;;;13.08;71.58;100698.53;5075977;28;20024;-61
2023/03/18 00:36:17;;;;;;;13.98;7.30;;;;;;;13.06;71.57;100697.66;5058096;28;20063;-61
2023/03/18 00:38:45;;;;;;;10.77;6.32;;;;;;;13.03;71.69;100701.19;5075782;28;20027;-60
2023/03/18 00:41:14;;;;;;;15.23;7.10;;;;;;;13.04;71.61;100710.03;5076123;28;20013;-61
2023/03/18 00:43:45;;;;;;;13.30;7.18;;;;;;;13.04;71.51;100704.72;5076035;28;20059;-61
2023/03/18 00:46:15;;;;;;;10.65;5.93;;;;;;;13.11;70.99;100693.22;5075131;28;20489;-62
2023/03/18 00:48:40;;;;;;;13.00;6.72;;;;;;;13.16;71.23;100707.34;5075720;28;20020;-61
2023/03/18 00:51:06;;;;;;;18.38;6.95;;;;;;;13.17;71.42;100710.88;5074812;28;20032;-61
2023/03/18 00:53:31;;;;;;;13.75;7.00;;;;;;;13.17;71.22;100719.72;5075452;28;20372;-61
2023/03/18 00:55:57;;;;;;;13.93;7.10;;;;;;;13.11;72.04;100716.22;5075640;28;20021;-61
2023/03/18 00:58:23;;;;;;;14.90;6.90;;;;;;;13.11;71.94;100719.75;5057633;28;20029;-61
2023/03/18 01:00:49;;;;;;;12.52;7.35;;;;;;;13.12;71.61;100718.84;5075774;28;20033;-62
2023/03/18 01:03:14;;;;;;;11.70;7.57;;;;;;;13.08;72.01;100721.53;5075311;28;20110;-62
2023/03/18 01:05:39;;;;;;;20.52;8.23;;;;;;;13.02;72.12;100709.16;5057630;28;20033;-61
2023/03/18 01:08:05;;;;;;;15.23;7.85;;;;;;;13.01;72.52;100715.31;5075298;28;20028;-61
2023/03/18 01:10:31;;;;;;;18.58;7.93;;;;;;;13.04;72.79;100713.56;5075274;28;20031;-62
2023/03/18 01:12:58;;;;;;;13.25;6.80;;;;;;;13.03;72.83;100708.25;5075096;28;20098;-61
2023/03/18 01:15:24;;;;;;;14.45;7.53;;;;;;;13.03;73.54;100711.78;5075322;28;20020;-62
2023/03/18 01:17:53;;;;;;;19.02;7.35;;;;;;;13.01;73.89;100710.03;5075244;28;20036;-61
2023/03/18 01:20:19;;;;;;;12.65;7.05;;;;;;;12.97;74.55;100711.78;5075361;28;20114;-62
2023/03/18 01:22:45;;;;;;;15.05;8.02;;;;;;;12.91;75.21;100705.63;5075044;28;20025;-62
2023/03/18 01:25:15;;;;;;;14.52;7.65;;;;;;;12.87;76.06;100710.03;5075142;28;20522;-62
2023/03/18 01:27:42;;;;;;;14.18;7.60;;;;;;;12.84;77.10;100717.09;5075330;28;20024;-61
2023/03/18 01:30:08;;;;;;;15.85;7.80;;;;;;;12.81;78.22;100706.53;5075235;28;20056;-62
2023/03/18 01:32:34;;;;;;;16.20;8.40;;;;;;;12.72;79.19;100707.41;5057000;28;20041;-62
2023/03/18 01:35:00;;;;;;;16.67;8.25;;;;;;;12.64;80.98;100711.84;5075138;28;20020;-62
2023/03/18 01:37:26;;;;;;;15.70;8.30;;;;;;;12.60;81.92;100707.41;5074854;28;20036;-62
2023/03/18 01:39:52;;;;;;;16.40;8.88;;;;;;;12.51;83.07;100718.91;5074849;28;20037;-62
2023/03/18 01:42:20;;;;;;;18.40;8.68;;;;;;;12.41;84.21;100720.63;5023713;28;20029;-61
2023/03/18 01:44:46;;;;;;;19.77;9.13;;;;;;;12.29;86.85;100720.63;5074947;28;20031;-62
2023/03/18 01:47:12;;;;;;;16.20;8.73;;;;;;;12.26;86.75;100717.97;5074643;28;20025;-61
2023/03/18 01:49:45;;;;;;;19.83;8.80;;;;;;;12.18;88.71;100714.44;5074488;28;20108;-62
2023/03/18 01:52:15;;;;;;;19.67;9.85;;;;;;;12.10;89.31;100710.88;5074758;28;20020;-61
2023/03/18 01:54:48;;;;;;;20.38;9.25;;;;;;;12.02;89.96;100706.44;5074858;28;20031;-62
2023/03/18 01:57:16;;;;;;;21.25;10.05;;;;;;;11.98;91.12;100701.13;5074376;28;20477;-62
2023/03/18 01:59:44;;;;;;;21.65;10.32;;;;;;;11.90;91.91;100706.38;5074353;28;20035;-62
2023/03/18 02:02:13;;;;;;;19.83;10.20;;;;;;;11.84;93.13;100709.03;5074075;28;20462;-63
2023/03/18 02:04:43;;;;;;;21.52;10.32;;;;;;;11.83;93.25;100715.22;5074081;28;20052;-62
2023/03/18 02:07:30;;;;;;;18.70;10.50;;;;;;;11.79;94.13;100719.56;5074145;28;20016;-63
2023/03/18 02:10:04;;;;;;;17.65;10.18;;;;;;;11.83;93.22;100723.16;5074160;28;20056;-62
2023/03/18 02:12:33;;;;;;;23.40;10.90;;;;;;;11.79;94.17;100710.75;5073895;28;20025;-63
2023/03/18 02:15:01;;;;;;;18.80;10.32;;;;;;;11.76;95.08;100711.59;5074211;28;20017;-62
2023/03/18 02:17:30;;;;;;;18.17;10.73;;;;;;;11.70;95.30;100714.25;5074020;28;20042;-63
2023/03/18 02:20:16;;;;;;;20.63;10.75;;;;;;;11.66;95.69;100717.75;5073984;28;20503;-63
2023/03/18 02:22:50;;;;;;;18.50;10.57;;;;;;;11.66;95.49;100709.81;5073985;28;20580;-63
2023/03/18 02:25:16;;;;;;;21.55;10.77;;;;;;;11.66;95.70;100720.41;5074200;28;20024;-63
2023/03/18 02:27:44;;;;;;;15.90;10.02;;;;;;;11.67;96.17;100719.53;5074146;28;20024;-63
2023/03/18 02:30:18;;;;;;;23.63;11.00;;;;;;;11.67;96.52;100727.47;5073859;28;20017;-63
2023/03/18 02:32:46;;;;;;;20.58;10.32;;;;;;;11.63;96.55;100733.63;5074033;28;20032;-64
2023/03/18 02:35:12;;;;;;;21.00;11.10;;;;;;;11.60;97.46;100727.41;5073780;28;20447;-64
2023/03/18 02:37:38;;;;;;;24.02;11.05;;;;;;;11.58;98.09;100731.84;5055874;28;20082;-65
2023/03/18 02:40:14;;;;;;;19.73;11.40;;;;;;;11.55;98.63;100735.34;5073639;28;20024;-65
2023/03/18 02:42:39;;;;;;;22.25;11.13;;;;;;;11.57;97.78;100740.66;5073336;28;20029;-65
2023/03/18 02:45:16;;;;;;;18.67;11.18;;;;;;;11.58;98.31;100745.06;5073570;28;20104;-66
2023/03/18 02:47:46;;;;;;;19.80;11.63;;;;;;;11.61;98.15;100747.75;5073630;28;20031;-67
2023/03/18 02:50:11;;;;;;;23.38;11.65;;;;;;;11.58;98.37;100747.72;5073369;28;20032;-66
2023/03/18 02:52:37;;;;;;;20.17;11.75;;;;;;;11.59;98.60;100745.06;5073347;28;20115;-66
2023/03/18 02:55:03;;;;;;;21.45;12.38;;;;;;;11.58;99.04;100742.44;5073620;28;20021;-66
2023/03/18 02:57:28;;;;;;;18.67;12.00;;;;;;;11.52;99.25;100735.34;5073301;28;20393;-66
2023/03/18 02:59:54;;;;;;;22.15;12.32;;;;;;;11.55;99.06;100748.56;5073308;28;20032;-66
2023/03/18 03:02:19;;;;;;;21.75;11.82;;;;;;;11.52;99.89;100749.47;5055331;28;20450;-67
2023/03/18 03:04:46;;;;;;;18.33;11.90;;;;;;;11.51;99.90;100758.25;5072762;28;20572;-67
2023/03/18 03:07:12;;;;;;;24.58;12.52;;;;;;;11.48;99.80;100752.09;5073317;28;20044;-67
2023/03/18 03:09:37;;;;;;;20.98;11.88;;;;;;;11.50;100.00;100752.97;5073379;28;20036;-67
2023/03/18 03:12:04;;;;;;;20.27;12.43;;;;;;;11.48;100.00;100760.03;5038505;28;20473;-68
2023/03/18 03:14:29;;;;;;;22.58;12.57;;;;;;;11.48;99.83;100771.50;5072462;28;20078;-67
2023/03/18 03:16:55;;;;;;;24.23;12.43;;;;;;;11.47;100.00;100769.69;5055224;28;20036;-66
2023/03/18 03:19:21;;;;;;;20.90;11.80;;;;;;;11.45;100.00;100774.09;5073166;28;20024;-66
2023/03/18 03:21:46;;;;;;;23.50;12.80;;;;;;;11.46;100.00;100772.34;5073371;28;20036;-67
2023/03/18 03:24:12;;;;;;;23.23;13.25;;;;;;;11.46;100.00;100775.00;5072933;28;20378;-67
2023/03/18 03:26:37;;;;;;;24.48;13.00;;;;;;;11.47;100.00;100771.44;5073263;28;20031;-67
2023/03/18 03:29:03;;;;;;;22.77;12.93;;;;;;;11.48;100.00;100778.53;5073231;28;20028;-67
2023/03/18 03:31:29;;;;;;;19.45;12.57;;;;;;;11.48;100.00;100766.19;5072796;28;20028;-67
2023/03/18 03:33:55;;;;;;;21.90;12.95;;;;;;;11.45;100.00;100760.88;5073183;28;20433;-67
2023/03/18 03:36:21;;;;;;;24.60;12.82;;;;;;;11.51;100.00;100767.94;5055134;28;20029;-67
2023/03/18 03:38:47;;;;;;;22.33;12.57;;;;;;;11.56;99.99;100781.22;5054920;28;20111;-67
2023/03/18 03:41:14;;;;;;;22.42;12.70;;;;;;;11.58;100.00;100787.41;5073047;28;20412;-67
2023/03/18 03:43:40;;;;;;;16.63;11.07;;;;;;;11.59;99.22;100782.13;5072678;28;20031;-67
2023/03/18 03:46:08;;;;;;;24.27;13.48;;;;;;;11.62;99.61;100773.31;5072822;28;20112;-67
2023/03/18 03:48:33;;;;;;;20.98;12.52;;;;;;;11.62;99.30;100776.84;5054992;28;20493;-67
2023/03/18 03:51:00;;;;;;;24.42;13.05;;;;;;;11.64;99.90;100776.84;5072763;28;20091;-67
2023/03/18 03:53:27;;;;;;;23.63;12.85;;;;;;;11.62;99.24;100778.63;5072722;28;20017;-68
2023/03/18 03:55:53;;;;;;;21.65;13.02;;;;;;;11.59;99.56;100779.47;5055440;28;20385;-68
2023/03/18 03:58:19;;;;;;;19.25;12.50;;;;;;;11.58;100.00;100787.41;5072944;28;20059;-67
2023/03/18 04:00:44;;;;;;;22.08;13.50;;;;;;;11.55;100.00;100790.91;5072841;28;20063;-67
2023/03/18 04:03:10;;;;;;;22.38;14.18;;;;;;;11.48;100.00;100779.44;5054423;28;20460;-68
2023/03/18 04:05:36;;;;;;;23.42;13.43;;;;;;;11.46;100.00;100786.44;5072730;28;20025;-68
2023/03/18 04:08:02;;;;;;;20.20;13.73;;;;;;;11.43;100.00;100785.53;5072621;28;20024;-68
2023/03/18 04:10:27;;;;;;;22.20;14.00;;;;;;;11.45;100.00;100791.75;5072541;28;20024;-68
2023/03/18 04:12:53;;;;;;;22.00;13.43;;;;;;;11.44;100.00;100784.69;5072295;28;20021;-69
2023/03/18 04:15:20;;;;;;;21.10;13.57;;;;;;;11.44;100.00;100790.88;5072596;28;20033;-68
2023/03/18 04:17:48;;;;;;;22.63;13.60;;;;;;;11.44;100.00;100789.97;5072654;28;20562;-68
2023/03/18 04:20:14;;;;;;;23.30;14.10;;;;;;;11.40;100.00;100785.53;5072487;28;20399;-68
2023/03/18 04:22:40;;;;;;;19.60;13.00;;;;;;;11.42;100.00;100797.00;5084350;28;20032;-68
2023/03/18 04:25:07;;;;;;;23.35;13.52;;;;;;;11.40;100.00;100796.13;5092708;28;20051;-68
2023/03/18 04:27:33;;;;;;;23.75;14.90;;;;;;;11.40;100.00;100791.72;5096589;28;20081;-68
2023/03/18 04:29:59;;;;;;;25.42;13.73;;;;;;;11.42;100.00;100791.72;5096431;28;20028;-68
2023/03/18 04:32:24;;;;;;;25.13;13.32;;;;;;;11.45;100.00;100787.34;5096510;28;20044;-68
2023/03/18 04:34:50;;;;;;;23.80;14.48;;;;;;;11.46;100.00;100798.81;5078157;28;20051;-68
2023/03/18 04:37:18;;;;;;;21.63;14.00;;;;;;;11.42;100.00;100800.53;5096403;28;20020;-68
2023/03/18 04:39:45;;;;;;;24.83;14.02;;;;;;;11.41;100.00;100806.72;5096164;28;20028;-68
2023/03/18 04:42:11;;;;;;;21.13;14.23;;;;;;;11.43;100.00;100806.72;5095958;28;20073;-68
2023/03/18 04:44:37;;;;;;;22.38;14.60;;;;;;;11.39;100.00;100800.53;5096376;28;20032;-68
2023/03/18 04:47:02;;;;;;;25.50;15.88;;;;;;;11.33;100.00;100800.47;5096113;28;20020;-68
2023/03/18 04:49:28;;;;;;;28.50;16.40;;;;;;;11.33;100.00;100799.59;5077997;28;20028;-67
2023/03/18 04:51:53;;;;;;;25.15;15.80;;;;;;;11.28;100.00;100810.16;5096141;28;20055;-67
2023/03/18 04:54:19;;;;;;;22.15;15.98;;;;;;;11.27;100.00;100822.50;5095817;28;20082;-68
2023/03/18 04:56:45;;;;;;;24.17;16.05;;;;;;;11.24;100.00;100813.66;5095957;28;20024;-67
2023/03/18 04:59:11;;;;;;;28.77;16.73;;;;;;;11.21;100.00;100810.97;5077699;28;20035;-68
2023/03/18 05:01:36;;;;;;;27.67;16.25;;;;;;;11.18;100.00;100811.84;5077513;28;20117;-67
2023/03/18 05:04:02;;;;;;;24.17;15.65;;;;;;;11.17;100.00;100817.09;5095675;28;20052;-67
2023/03/18 05:06:30;;;;;;;25.77;15.85;;;;;;;11.17;100.00;100817.97;5095651;28;20028;-68
2023/03/18 05:08:57;;;;;;;24.38;15.02;;;;;;;11.15;100.00;100825.03;5095585;28;20366;-67
2023/03/18 05:11:22;;;;;;;23.45;15.07;;;;;;;11.16;100.00;100829.44;5095552;28;20052;-68
2023/03/18 05:13:48;;;;;;;28.58;14.93;;;;;;;11.15;100.00;100827.69;5095644;28;20111;-67
2023/03/18 05:16:14;;;;;;;29.60;15.13;;;;;;;11.14;100.00;100827.69;5095504;28;20043;-67
2023/03/18 05:18:40;;;;;;;23.95;15.18;;;;;;;11.14;100.00;100827.69;5095477;28;20036;-67
2023/03/18 05:21:06;;;;;;;22.60;14.88;;;;;;;11.18;100.00;100830.34;5095381;28;20024;-67
2023/03/18 05:23:32;;;;;;;24.60;14.32;;;;;;;11.19;100.00;100824.19;5095220;28;20431;-67
2023/03/18 05:25:58;;;;;;;22.30;13.68;;;;;;;11.21;100.00;100829.47;5095364;28;20035;-67
2023/03/18 05:28:23;;;;;;;22.17;14.32;;;;;;;11.15;100.00;100817.09;5077194;28;20066;-68
2023/03/18 05:30:49;;;;;;;24.23;13.93;;;;;;;11.18;100.00;100819.78;5077130;28;20031;-68
2023/03/18 05:33:14;;;;;;;23.38;13.75;;;;;;;11.19;100.00;100818.03;5095173;28;20020;-66
2023/03/18 05:35:40;;;;;;;20.25;13.82;;;;;;;11.19;100.00;100823.31;5095157;28;20533;-66
2023/03/18 05:38:06;;;;;;;24.15;13.30;;;;;;;11.19;100.00;100820.66;5094437;28;20032;-66
2023/03/18 05:40:32;;;;;;;22.45;14.02;;;;;;;11.16;100.00;100813.56;5094973;28;20089;-67
2023/03/18 05:42:57;;;;;;;22.55;13.65;;;;;;;11.11;100.00;100811.78;5076770;28;20051;-67
2023/03/18 05:45:23;;;;;;;19.48;12.93;;;;;;;11.12;100.00;100817.06;5095317;28;20473;-68
2023/03/18 05:47:49;;;;;;;22.77;13.73;;;;;;;11.12;100.00;100819.72;5076884;28;20028;-68
2023/03/18 05:50:37;;;;;;;22.08;12.75;;;;;;;11.15;100.00;100818.88;5094822;28;20032;-68
2023/03/18 05:53:04;;;;;;;21.35;13.20;;;;;;;11.14;100.00;100836.50;5062423;28;20032;-67
2023/03/18 05:55:30;;;;;;;23.67;13.43;;;;;;;11.11;100.00;100847.03;5094826;28;20017;-68
2023/03/18 05:57:59;;;;;;;23.17;13.85;;;;;;;11.11;100.00;100848.81;5094589;28;20016;-68
2023/03/18 06:00:30;;;;;;;22.23;14.93;;;;;;;11.07;100.00;100849.66;5094821;28;20051;-68
2023/03/18 06:02:57;;;;;;;22.48;14.07;;;;;;;11.07;100.00;100854.94;5094460;28;20454;-68
2023/03/18 06:05:23;;;;;;;24.65;14.98;;;;;;;11.09;100.00;100863.75;5094324;28;20040;-68
2023/03/18 06:07:49;;;;;;;23.63;14.32;;;;;;;11.08;100.00;100854.94;5094454;28;20044;-68
2023/03/18 06:10:15;;;;;;;23.15;14.75;;;;;;;11.09;100.00;100866.41;5076277;28;20032;-68
2023/03/18 06:12:41;;;;;;;23.15;14.20;;;;;;;11.08;100.00;100869.91;5094279;28;20020;-68
2023/03/18 06:15:08;;;;;;;21.88;14.10;;;;;;;11.11;100.00;100867.31;5094464;28;20507;-68
2023/03/18 06:17:33;;;;;;;23.77;13.05;;;;;;;11.10;100.00;100869.06;5094700;28;20376;-68
2023/03/18 06:19:59;;;;;;;23.55;14.40;;;;;;;11.11;100.00;100867.31;5076129;28;20026;-68
2023/03/18 06:22:25;;;;;;;20.85;14.23;;;;;;;11.18;100.00;100866.50;5094460;28;20028;-68
2023/03/18 06:24:51;;;;;;;21.85;13.68;;;;;;;11.23;100.00;100864.78;5094376;28;20466;-68
2023/03/18 06:27:17;;;;;;;25.27;14.07;;;;;;;11.28;100.00;100855.13;5094175;28;20246;-66
2023/03/18 06:29:43;;;;;;;24.27;13.48;;;;;;;11.43;100.00;100871.09;5094015;28;20036;-67
2023/03/18 06:32:08;;;;;;;23.33;13.60;;;;;;;11.50;100.00;100862.34;5093968;28;20029;-68
2023/03/18 06:34:35;;;;;;;18.33;12.57;;;;;;;11.60;100.00;100859.75;5093916;28;20027;-67
2023/03/18 06:37:01;;;;;;;20.30;12.57;;;;;;;11.66;100.00;100859.81;5094072;28;20052;-67
2023/03/18 06:39:27;;;;;;;22.25;13.52;;;;;;;11.72;99.33;100868.66;5075886;28;20056;-66
2023/03/18 06:41:53;;;;;;;20.08;12.18;;;;;;;11.79;99.11;100867.81;5093980;28;20066;-67
2023/03/18 06:44:20;;;;;;;21.35;12.52;;;;;;;11.88;98.56;100871.44;5093799;28;20488;-67
2023/03/18 06:46:45;;;;;;;19.20;11.60;;;;;;;11.93;98.01;100869.69;5093846;28;20108;-67
2023/03/18 06:49:11;;;;;;;19.55;12.25;;;;;;;12.07;98.04;100878.59;5093783;28;20111;-67
2023/03/18 06:51:37;;;;;;;18.00;11.32;;;;;;;12.16;97.11;100876.03;5093635;28;20039;-67
2023/03/18 06:54:04;;;;;;;18.27;11.85;;;;;;;12.19;95.85;100885.72;5093563;28;20024;-67
2023/03/18 06:56:32;;;;;;;16.20;11.05;;;;;;;12.20;95.31;100885.72;5093619;28;20035;-67
2023/03/18 06:58:58;;;;;;;16.50;10.57;;;;;;;12.19;95.51;100886.59;5075414;28;20074;-67
2023/03/18 07:01:24;;;;;;;19.50;11.65;;;;;;;12.15;95.98;100890.13;5093596;28;20427;-67
2023/03/18 07:03:50;;;;;;;18.25;12.35;;;;;;;12.20;95.41;100891.03;5093210;28;20032;-67
2023/03/18 07:06:17;;;;;;;18.63;11.60;;;;;;;12.30;96.44;100880.50;5093557;28;20078;-67
2023/03/18 07:08:43;;;;;;;21.02;12.13;;;;;;;12.44;95.81;100900.84;5075524;28;20032;-67
2023/03/18 07:11:09;;;;;;;16.27;11.95;;;;;;;12.60;95.23;100904.44;5093332;28;20024;-67
2023/03/18 07:13:35;;;;;;;16.40;11.63;;;;;;;12.65;93.93;100910.66;5093276;28;20028;-66
2023/03/18 07:16:02;;;;;;;16.75;11.73;;;;;;;12.63;93.31;100908.88;5075674;28;20031;-67
2023/03/18 07:18:28;;;;;;;18.88;11.73;;;;;;;12.67;93.36;100913.28;5093503;28;20133;-67
2023/03/18 07:20:53;;;;;;;20.30;12.52;;;;;;;12.62;93.41;100912.41;5093336;28;20031;-66
2023/03/18 07:23:19;;;;;;;16.75;12.63;;;;;;;12.62;93.69;100910.63;5093196;28;20202;-67
2023/03/18 07:25:45;;;;;;;22.00;12.30;;;;;;;12.66;92.64;100916.84;5093231;28;20028;-67
2023/03/18 07:28:11;;;;;;;14.82;11.60;;;;;;;12.69;92.05;100917.72;5093463;28;20111;-67
2023/03/18 07:30:37;;;;;;;18.75;12.65;;;;;;;12.75;91.46;100923.03;5093401;28;20381;-66
2023/03/18 07:33:03;;;;;;;17.15;11.60;;;;;;;12.80;91.82;100920.41;5093268;28;20024;-66
2023/03/18 07:35:28;;;;;;;16.83;11.82;;;;;;;12.96;91.83;100924.00;5093111;28;20027;-66
2023/03/18 07:37:55;;;;;;;16.23;11.57;;;;;;;13.13;90.51;100922.25;5093003;28;20033;-66
2023/03/18 07:40:21;;;;;;;17.52;11.57;;;;;;;13.22;89.68;100929.34;5093315;28;20032;-66
2023/03/18 07:42:47;;;;;;;16.83;11.88;;;;;;;13.33;88.98;100932.06;5093103;28;20119;-66
2023/03/18 07:45:12;;;;;;;16.00;11.65;;;;;;;13.46;88.88;100931.16;5093017;28;20025;-66
2023/03/18 07:47:37;;;;;;;17.58;12.32;;;;;;;13.52;87.34;100941.78;5093004;28;20085;-66
2023/03/18 07:50:04;;;;;;;17.42;10.95;;;;;;;13.63;87.23;100934.72;5093182;28;20502;-66
2023/03/18 07:52:30;;;;;;;17.65;11.32;;;;;;;13.78;86.18;100941.75;5093106;28;20052;-66
2023/03/18 07:54:55;;;;;;;13.10;10.82;;;;;;;13.79;85.09;100943.56;5093247;28;20048;-66
2023/03/18 07:57:21;;;;;;;17.65;10.68;;;;;;;13.92;85.39;100952.41;5093136;28;20056;-66
2023/03/18 07:59:47;;;;;;;15.55;10.75;;;;;;;14.01;84.79;100957.69;5092938;28;20411;-66
2023/03/18 08:02:14;;;;;;;18.77;11.00;;;;;;;14.23;84.82;100948.78;5096128;28;20024;-65
2023/03/18 08:04:41;;;;;;;16.80;10.35;;;;;;;14.40;83.35;100951.41;5078749;28;20040;-66
2023/03/18 08:07:07;;;;;;;15.50;10.48;;;;;;;14.49;82.13;100946.06;5097096;28;20074;-65
2023/03/18 08:09:33;;;;;;;18.38;9.90;;;;;;;14.72;81.97;100953.94;5096962;28;20036;-65
2023/03/18 08:11:59;;;;;;;12.63;9.18;;;;;;;14.97;79.67;100944.06;5093402;28;20117;-65
2023/03/18 08:14:24;;;;;;;13.55;9.27;;;;;;;15.23;78.98;100946.56;5096658;28;20427;-65
2023/03/18 08:16:50;;;;;;;13.40;8.98;;;;;;;15.45;77.67;100944.63;5078581;28;20077;-65
2023/03/18 08:19:15;;;;;;;12.00;8.88;;;;;;;15.64;76.14;100937.44;5096753;28;20028;-65
2023/03/18 08:21:42;;;;;;;14.95;9.15;;;;;;;15.85;75.73;100940.81;5096605;28;20043;-65
2023/03/18 08:24:08;;;;;;;15.40;9.30;;;;;;;16.11;74.04;100933.41;5096705;28;20032;-65
2023/03/18 08:26:35;;;;;;;12.93;8.52;;;;;;;16.42;74.07;100941.94;5096554;28;20024;-65
2023/03/18 08:29:01;;;;;;;10.50;7.85;;;;;;;16.61;71.49;100934.59;5096679;28;20020;-65
2023/03/18 08:31:26;;;;;;;10.60;7.95;;;;;;;16.76;70.29;100939.78;5096609;28;20101;-64
2023/03/18 08:33:55;;;;;;;11.23;8.02;;;;;;;16.74;70.27;100935.34;5096362;28;20032;-65
2023/03/18 08:36:21;;;;;;;12.20;8.70;;;;;;;16.68;70.13;100941.63;5096252;28;20031;-64
2023/03/18 08:38:47;;;;;;;12.48;8.27;;;;;;;16.71;70.69;100946.06;5096102;28;20032;-64
2023/03/18 08:41:13;;;;;;;13.13;7.72;;;;;;;16.59;69.27;100940.88;5096455;28;20024;-64
2023/03/18 08:43:38;;;;;;;11.10;7.60;;;;;;;16.59;69.83;100948.88;5077970;28;20028;-64
2023/03/18 08:46:06;;;;;;;13.23;7.93;;;;;;;16.62;69.62;100949.72;5078311;28;20031;-64
2023/03/18 08:48:31;;;;;;;11.25;7.60;;;;;;;16.49;68.99;100956.13;5096155;28;20103;-64
2023/03/18 08:50:57;;;;;;;13.43;7.90;;;;;;;16.53;70.29;100944.50;5095859;28;20115;-64
2023/03/18 08:53:23;;;;;;;10.48;7.95;;;;;;;16.58;69.44;100944.44;5095784;28;20111;-64
2023/03/18 08:55:48;;;;;;;11.90;7.07;;;;;;;16.59;69.53;100951.53;5096135;28;20376;-64
2023/03/18 08:58:14;;;;;;;9.45;6.78;;;;;;;16.41;67.99;100945.53;5095968;28;20131;-64
2023/03/18 09:00:41;;;;;;;10.75;7.53;;;;;;;16.49;69.66;100948.13;5095934;28;20028;-64
2023/03/18 09:03:07;;;;;;;9.27;6.85;;;;;;;16.63;69.06;100939.94;5096149;28;20052;-64
2023/03/18 09:05:33;;;;;;;8.55;6.32;;;;;;;16.82;67.47;100952.16;5095125;28;20048;-63
2023/03/18 09:07:59;;;;;;;10.13;6.35;;;;;;;17.03;66.53;100959.00;5095632;28;20036;-63
2023/03/18 09:10:26;;;;;;;9.30;6.45;;;;;;;17.34;66.38;100951.41;5095919;28;20389;-63
2023/03/18 09:12:51;;;;;;;12.02;7.13;;;;;;;17.69;66.00;100947.31;5094112;28;20381;-63
2023/03/18 09:15:21;;;;;;;11.77;6.32;;;;;;;18.03;63.90;100947.63;5095648;28;20024;-64
2023/03/18 09:17:47;;;;;;;10.05;6.47;;;;;;;17.92;63.00;100960.28;5095836;28;20044;-63
2023/03/18 09:20:15;;;;;;;10.55;6.50;;;;;;;17.91;62.75;100954.06;5095742;28;20031;-64
2023/03/18 09:22:42;;;;;;;8.80;6.10;;;;;;;17.94;62.59;100959.38;5095448;28;20024;-63
2023/03/18 09:25:08;;;;;;;12.10;6.70;;;;;;;17.76;62.23;100948.97;5095749;28;20043;-64
2023/03/18 09:27:33;;;;;;;10.07;6.30;;;;;;;17.72;63.69;100956.13;5095761;28;20369;-63
2023/03/18 09:29:59;;;;;;;7.78;5.75;;;;;;;17.82;64.62;100959.59;5095238;28;20067;-63
2023/03/18 09:32:25;;;;;;;12.75;6.20;;;;;;;17.73;62.19;100970.41;5095347;28;20066;-63
2023/03/18 09:34:51;;;;;;;10.05;6.50;;;;;;;17.77;63.64;100962.34;5095285;28;20066;-63
2023/03/18 09:37:17;;;;;;;10.85;6.95;;;;;;;18.00;63.68;100963.72;5095482;28;20418;-63
2023/03/18 09:39:43;;;;;;;11.68;6.60;;;;;;;17.84;62.92;100960.41;5095264;28;20025;-63
2023/03/18 09:42:21;;;;;;;9.23;5.65;;;;;;;18.02;63.77;100956.53;5094909;28;20020;-63
2023/03/18 09:44:52;;;;;;;12.07;5.93;;;;;;;18.06;62.74;100960.91;5095288;28;20020;-63
2023/03/18 09:47:46;;;;;;;9.55;5.70;;;;;;;18.05;62.28;100953.81;5095326;28;20052;-63
2023/03/18 09:50:33;;;;;;;7.80;5.75;;;;;;;18.03;63.28;100950.31;5095154;28;20066;-63
2023/03/18 09:53:22;;;;;;;7.82;5.40;;;;;;;18.39;63.32;100958.53;5094700;28;20494;-62
2023/03/18 09:55:54;;;;;;;9.88;6.13;;;;;;;18.67;62.44;100954.38;5094817;28;20107;-63
2023/03/18 09:58:23;;;;;;;10.25;6.10;;;;;;;18.94;61.56;100952.06;5095154;28;20036;-62
2023/03/18 10:00:52;;;;;;;11.43;5.80;;;;;;;19.06;59.52;100954.47;5094721;28;20034;-63
2023/03/18 10:03:26;;;;;;;8.30;5.00;;;;;;;19.44;58.65;100956.25;5094952;28;20020;-62
2023/03/18 10:06:15;;;;;;;9.30;5.50;;;;;;;19.54;59.38;100958.72;5094400;28;20044;-62
2023/03/18 10:08:45;;;;;;;8.68;4.18;;;;;;;19.47;55.55;100948.13;5083713;28;20044;-62
2023/03/18 10:11:23;;;;;;;7.22;4.55;;;;;;;19.56;56.12;100952.38;5076600;28;20085;-62
2023/03/18 10:14:16;;;;;;;9.00;4.40;;;;;;;19.35;54.88;100953.78;5094382;28;20051;-63
2023/03/18 10:16:52;;;;;;;7.97;4.07;;;;;;;19.42;56.88;100955.41;5065361;28;20043;-63
2023/03/18 10:19:18;;;;;;;7.25;4.13;;;;;;;19.56;56.92;100956.84;5094645;28;20052;-63
2023/03/18 10:22:00;;;;;;;8.48;4.00;;;;;;;19.61;56.44;100957.66;5094441;28;20516;-63
2023/03/18 10:24:34;;;;;;;6.57;3.42;;;;;;;19.54;54.15;100964.94;5093974;28;20032;-62
2023/03/18 10:27:09;;;;;;;7.05;3.53;;;;;;;19.35;55.90;100951.09;5094361;28;20081;-62
2023/03/18 10:29:53;;;;;;;6.30;3.55;;;;;;;19.42;53.88;100965.25;5094562;28;20032;-62
2023/03/18 10:32:44;;;;;;;6.47;3.70;;;;;;;19.50;55.27;100969.50;5075990;28;20066;-62
2023/03/18 10:35:16;;;;;;;6.45;3.70;;;;;;;19.46;54.59;100953.53;5094369;28;20024;-62
2023/03/18 10:38:01;;;;;;;6.50;4.07;;;;;;;19.51;55.89;100947.13;5094305;28;20024;-63
2023/03/18 10:40:33;;;;;;;5.25;3.65;;;;;;;19.53;55.09;100955.16;5094112;28;20357;-62
2023/03/18 10:42:59;;;;;;;8.45;3.45;;;;;;;19.45;54.03;100957.13;5094096;28;20020;-62
2023/03/18 10:45:30;;;;;;;7.40;3.60;;;;;;;19.25;53.13;100957.59;5059208;28;20047;-62
2023/03/18 10:48:09;;;;;;;6.78;3.28;;;;;;;19.20;53.79;100955.03;5093994;28;20017;-64
2023/03/18 10:50:38;;;;;;;8.55;3.65;;;;;;;19.15;53.25;100946.22;5093747;28;20473;-62
2023/03/18 10:53:13;;;;;;;6.50;3.67;;;;;;;19.47;54.49;100948.13;5093692;28;20035;-62
2023/03/18 10:55:53;;;;;;;9.73;3.67;;;;;;;19.84;53.20;100947.25;5093880;28;20061;-62
2023/03/18 10:58:19;;;;;;;9.85;3.50;;;;;;;20.07;51.73;100937.69;5093982;28;20031;-62
2023/03/18 11:00:45;;;;;;;6.60;3.15;;;;;;;19.91;50.24;100938.13;5093674;28;20059;-61
2023/03/18 11:03:34;;;;;;;6.90;3.13;;;;;;;19.46;53.12;100949.03;5093907;28;20488;-62
2023/03/18 11:06:01;;;;;;;8.45;3.50;;;;;;;19.24;53.34;100931.72;5093457;28;20050;-61
2023/03/18 11:08:33;;;;;;;7.28;3.53;;;;;;;19.10;53.18;100936.50;5093713;28;20020;-62
2023/03/18 11:11:16;;;;;;;5.55;3.10;;;;;;;18.84;52.48;100937.97;5093421;28;20016;-62
2023/03/18 11:13:51;;;;;;;7.18;2.50;;;;;;;18.86;52.92;100936.16;5093362;28;20541;-61
2023/03/18 11:16:43;;;;;;;9.65;2.63;;;;;;;18.85;53.25;100939.75;5093512;28;20066;-61